Aviation Digital Data Service (ADDS)

Output produced by METARs form (0558 UTC 18 January 2018)
found at http://www.aviationweather.gov/adds/metars/
 
METAR text: KSAR 180535Z AUTO 20006KT 10SM CLR M09/M11 A3050 RMK AO2 T10901108
Conditions at: KSAR (SPARTA , IL, US) observed 0535 UTC 18 January 2018
Temperature: -9.0°C (16°F)
Dewpoint: -10.8°C (13°F) [RH = 87%]
Pressure (altimeter): 30.50 inches Hg (1032.9 mb)
Winds: from the SSW (200 degrees) at 7 MPH (6 knots; 3.1 m/s)
Visibility: 10 or more miles (16+ km)
Ceiling: at least 12,000 feet AGL
Clouds: sky clear below 12,000 feet AGL
Weather: automated observation with no human augmentation;
there may or may not be significant weather present at this time